Flight Track Log - Related Links

Times and Time Zones

All times are in EDT time to prevent confusion due to time zone crossing. See the UAL4679 flight status page for this flight to view local times or setup timezone preferences in your user account.

Time Position Orientation Groundspeed Altitude Reporting Facility
EDT Latitude Longitude Course Direction KTS MPH feet Rate Location/Type
Sun 12:58:43 PM 40.6333 -74.1833 270° West 176 203 1,900  Level New York TRACON
Sun 12:59:43 PM 40.6167 -74.2500 252° West 219 252 3,500 1,750 Climbing New York TRACON
Sun 01:00:00 PM 40.5568 -74.5195 250° West  Level FlightAware Approximate
Sun 01:00:43 PM 40.6167 -74.3333 270° West 252 290 5,400  Level New York TRACON
Sun 01:01:00 PM 40.5216 -74.6485 250° West  Level FlightAware Approximate
Sun 01:01:43 PM 40.6000 -74.4333 258° West 264 304 7,400  Level New York TRACON
Sun 01:02:00 PM 40.4808 -74.7744 246° West  Level FlightAware Approximate
Sun 01:03:00 PM 40.4349 -74.8968 237° Southwest  Level FlightAware Approximate
Sun 01:03:27 PM 40.5953 -74.6056 268° West 284 327 10,500  Level New York Center
Sun 01:04:00 PM 40.3833 -75.0078 270° West  Level FlightAware Approximate
Sun 01:04:28 PM 40.5794 -74.7003 258° West 297 342 12,100  Level New York Center
Sun 01:05:29 PM 40.5264 -74.7956 234° Southwest 291 335 13,700 1,261 Climbing New York Center
Sun 01:06:27 PM 40.4733 -74.8853 232° Southwest 309 356 14,600 706 Climbing New York Center
Sun 01:07:28 PM 40.4200 -74.9719 231° Southwest 331 381 15,100 590 Climbing New York Center
Sun 01:08:29 PM 40.3522 -75.0658 227° Southwest 352 405 15,800 843 Climbing New York Center
Sun 01:09:29 PM 40.2772 -75.1728 227° Southwest 364 419 16,800 908 Climbing New York Center
Sun 01:10:28 PM 40.2069 -75.2717 227° Southwest 372 428 17,600 756 Climbing New York Center
Sun 01:11:28 PM 40.1431 -75.3625 227° Southwest 377 434 18,300 744 Climbing New York Center
Sun 01:12:29 PM 40.0744 -75.4611 228° Southwest 377 434 19,100 843 Climbing New York Center
Sun 01:13:29 PM 40.0039 -75.5567 226° Southwest 377 434 20,000 850 Climbing New York Center
Sun 01:14:29 PM 39.9331 -75.6547 227° Southwest 377 434 20,800 814 Climbing New York Center
Sun 01:15:27 PM 39.8864 -75.7758 243° Southwest 377 434 21,600 857 Climbing New York Center
Sun 01:16:28 PM 39.8453 -75.9056 248° West 372 428 22,500 836 Climbing New York Center
Sun 01:17:29 PM 39.8106 -76.0325 250° West 382 440 23,300 744 Climbing New York Center
Sun 01:18:29 PM 39.7694 -76.1564 247° West 382 440 24,000 814 Climbing New York Center
Sun 01:19:27 PM 39.7233 -76.2961 247° West 382 440 24,900 857 Climbing New York Center
Sun 01:20:28 PM 39.6697 -76.4158 240° Southwest 382 440 25,700 744 Climbing New York Center
Sun 01:21:28 PM 39.6022 -76.5183 229° Southwest 382 440 26,400 738 Climbing New York Center
Sun 01:22:38 PM 39.5217 -76.6433 230° Southwest 381 438 27,300 733 Climbing Washington Center
Sun 01:23:39 PM 39.4539 -76.7500 231° Southwest 381 438 28,000 689 Climbing Washington Center
Sun 01:24:40 PM 39.3881 -76.8592 232° Southwest 386 444 28,700 744 Climbing Washington Center
Sun 01:25:40 PM 39.3264 -76.9706 234° Southwest 386 444 29,500 763 Climbing Washington Center
Sun 01:26:38 PM 39.2731 -77.0875 240° Southwest 392 451 30,200 706 Climbing Washington Center
Sun 01:27:39 PM 39.2194 -77.2069 240° Southwest 392 451 30,900 738 Climbing Washington Center
Sun 01:28:40 PM 39.1656 -77.3289 240° Southwest 387 445 31,700 843 Climbing Washington Center
Sun 01:29:40 PM 39.1139 -77.4481 241° Southwest 392 451 32,600 893 Climbing Washington Center
Sun 01:30:41 PM 39.0597 -77.5669 240° Southwest 392 451 33,500 712 Climbing Washington Center
Sun 01:31:38 PM 38.9856 -77.6372 216° Southwest 366 421 34,000 252 Climbing Washington Center
Sun 01:32:40 PM 38.8803 -77.6956 203° Southwest 377 434 34,000  Level Washington Center
Sun 01:33:40 PM 38.7814 -77.7486 203° Southwest 387 445 34,000 153 Level Washington Center
Sun 01:34:38 PM 38.6783 -77.8042 203° Southwest 407 468 34,300 655 Climbing Washington Center
Sun 01:35:39 PM 38.5750 -77.8594 203° Southwest 407 468 35,300 836 Climbing Washington Center
Sun 01:36:40 PM 38.4783 -77.9097 202° Southwest 400 460 36,000 353 Climbing Washington Center
Sun 01:37:38 PM 38.3772 -77.9647 203° Southwest 400 460 36,000  Level Washington Center
Sun 01:38:40 PM 38.2717 -78.0197 202° Southwest 400 460 36,000  Level Washington Center
Sun 01:39:38 PM 38.1664 -78.0769 203° Southwest 405 466 36,000  Level Washington Center
Sun 01:40:39 PM 38.0608 -78.1314 202° Southwest 405 466 36,000  Level Washington Center
Sun 01:41:40 PM 37.9569 -78.2097 211° Southwest 393 452 36,000  Level Washington Center
Sun 01:42:38 PM 37.8675 -78.2958 217° Southwest 406 467 36,000  Level Washington Center
Sun 01:43:39 PM 37.7864 -78.3744 217° Southwest 411 473 36,000  Level Washington Center
Sun 01:44:40 PM 37.6969 -78.4553 216° Southwest 411 473 36,000  Level Washington Center
Sun 01:45:40 PM 37.6050 -78.5433 217° Southwest 411 473 36,000  Level Washington Center
Sun 01:46:39 PM 37.5156 -78.6239 216° Southwest 411 473 36,000  Level Washington Center
Sun 01:47:40 PM 37.4150 -78.7192 217° Southwest 411 473 36,000  Level Washington Center
Sun 01:48:38 PM 37.3272 -78.8017 217° Southwest 411 473 36,000  Level Washington Center
Sun 01:49:39 PM 37.2375 -78.8867 217° Southwest 411 473 36,000  Level Washington Center
Sun 01:50:40 PM 37.1453 -78.9686 215° Southwest 411 473 36,000  Level Washington Center
Sun 01:51:38 PM 37.0556 -79.0506 216° Southwest 411 473 36,000  Level Washington Center
Sun 01:52:38 PM 36.9761 -79.1250 217° Southwest 411 473 36,000  Level Washington Center
Sun 01:53:39 PM 36.8881 -79.2094 217° Southwest 411 473 36,000  Level Washington Center
Sun 01:54:40 PM 36.8000 -79.2908 217° Southwest 406 467 36,000  Level Washington Center
Sun 01:55:38 PM 36.7097 -79.3719 216° Southwest 401 461 36,000  Level Washington Center
Sun 01:56:39 PM 36.6131 -79.4631 217° Southwest 401 461 36,000  Level Washington Center
Sun 01:57:41 PM 36.5228 -79.5464 217° Southwest 401 461 36,000  Level Washington Center
Sun 02:00:18 PM 36.2900 -79.7525 216° Southwest 413 475 36,000  Level Atlanta Center
Sun 02:01:18 PM 36.1908 -79.8428 216° Southwest 413 475 36,000  Level Atlanta Center
Sun 02:02:18 PM 36.0997 -79.9219 215° Southwest 410 472 36,000  Level Atlanta Center
Sun 02:03:18 PM 36.0019 -79.9936 211° Southwest 401 461 36,000  Level Atlanta Center
Sun 02:04:18 PM 35.8994 -80.0447 202° Southwest 414 476 36,000  Level Atlanta Center
Sun 02:05:18 PM 35.8050 -80.0956 204° Southwest 414 476 36,000  Level Atlanta Center
Sun 02:06:18 PM 35.6983 -80.1467 201° Southwest 409 471 36,000  Level Atlanta Center
Sun 02:07:18 PM 35.5936 -80.2028 204° Southwest 403 464 36,000  Level Atlanta Center
Sun 02:08:18 PM 35.4889 -80.2561 203° Southwest 387 445 36,000  Level Atlanta Center
Sun 02:09:18 PM 35.3819 -80.3094 202° Southwest 387 445 36,000  Level Atlanta Center
Sun 02:11:25 PM 35.1453 -80.4278 202° Southwest 409 471 36,000  Level Jacksonville Center
Sun 02:12:25 PM 35.0375 -80.4689 197° South 409 471 36,000  Level Jacksonville Center
Sun 02:13:24 PM 34.9256 -80.5025 194° South 409 471 36,000  Level Jacksonville Center
Sun 02:14:24 PM 34.8136 -80.5283 191° South 409 471 36,000  Level Jacksonville Center
Sun 02:15:24 PM 34.7097 -80.5564 193° South 403 464 36,000  Level Jacksonville Center
Sun 02:16:24 PM 34.6000 -80.5947 196° South 403 464 36,000  Level Jacksonville Center
Sun 02:17:25 PM 34.4900 -80.6278 194° South 403 464 36,000  Level Jacksonville Center
Sun 02:18:24 PM 34.3822 -80.6711 198° South 408 470 36,000  Level Jacksonville Center
Sun 02:19:24 PM 34.2725 -80.7089 196° South 417 480 36,000  Level Jacksonville Center
Sun 02:20:25 PM 34.1625 -80.7444 195° South 412 474 36,000 -200 Level Jacksonville Center
Sun 02:21:24 PM 34.0522 -80.7672 190° South 412 474 35,600 -958 Descending Jacksonville Center
Sun 02:22:24 PM 33.9336 -80.7950 191° South 419 482 34,100 -1,488 Descending Jacksonville Center
Sun 02:23:25 PM 33.8214 -80.8228 192° South 419 482 32,600 -1,488 Descending Jacksonville Center
Sun 02:24:25 PM 33.7114 -80.8478 191° South 419 482 31,100 -1,300 Descending Jacksonville Center
Sun 02:25:25 PM 33.5992 -80.8728 191° South 414 476 30,000 -550 Descending Jacksonville Center
Sun 02:26:25 PM 33.4867 -80.9003 192° South 414 476 30,000  Level Jacksonville Center
Sun 02:27:24 PM 33.3744 -80.9250 190° South 414 476 30,000  Level Jacksonville Center
Sun 02:28:24 PM 33.2600 -80.9500 190° South 414 476 30,000  Level Jacksonville Center
Sun 02:29:25 PM 33.1456 -80.9772 191° South 414 476 30,000 -50 Level Jacksonville Center
Sun 02:30:24 PM 33.0314 -81.0019 190° South 414 476 29,900  Descending Jacksonville Center
Sun 02:31:24 PM 32.9147 -81.0292 191° South 414 476 30,000 50 Climbing Jacksonville Center
Sun 02:32:24 PM 32.8003 -81.0564 191° South 419 482 30,000  Level Jacksonville Center
Sun 02:33:24 PM 32.6942 -81.0806 191° South 424 488 30,000  Level Jacksonville Center
Sun 02:34:24 PM 32.5758 -81.1250 198° South 418 481 30,000 -99 Level Jacksonville Center
Sun 02:35:25 PM 32.4764 -81.1664 199° South 423 487 29,800 -350 Descending Jacksonville Center
Sun 02:36:24 PM 32.3600 -81.2178 200° South 434 499 29,300 -504 Descending Jacksonville Center
Sun 02:37:24 PM 32.2439 -81.2714 201° Southwest 445 512 28,800 -496 Descending Jacksonville Center
Sun 02:38:25 PM 32.1275 -81.3250 201° Southwest 450 518 28,300 -550 Descending Jacksonville Center
Sun 02:39:24 PM 32.0031 -81.3883 203° Southwest 450 518 27,700 -555 Descending Jacksonville Center
Sun 02:40:24 PM 31.8911 -81.4464 204° Southwest 444 511 27,200 -496 Descending Jacksonville Center
Sun 02:41:25 PM 31.7914 -81.4994 204° Southwest 444 511 26,700 -595 Descending Jacksonville Center
Sun 02:42:25 PM 31.6689 -81.5672 205° Southwest 439 505 26,000 -1,008 Descending Jacksonville Center
Sun 02:43:24 PM 31.5544 -81.6028 195° South 434 499 24,700 -1,866 Descending Jacksonville Center
Sun 02:44:24 PM 31.4314 -81.6094 183° South 447 514 22,300 -2,975 Descending Jacksonville Center
Sun 02:45:25 PM 31.3167 -81.6208 185° South 428 493 18,700 -3,537 Descending Jacksonville Center
Sun 02:45:59 PM 31.2583 -81.6239 183° South 378 435 16,700 -3,792 Descending Jacksonville Center
Sun 02:47:30 PM 31.1039 -81.6381 184° South 350 403 10,800 -2,814 Descending Jacksonville Center
Sun 02:48:24 PM 31.0203 -81.6442 184° South 360 414 9,900 -1,105 Descending Jacksonville Center
Sun 02:49:24 PM 30.9433 -81.6500 184° South 321 369 8,700 -1,835 Descending Jacksonville Center
Sun 02:50:25 PM 30.8744 -81.6750 197° South 289 333 6,200 -2,350 Descending Jacksonville Center
Sun 02:51:24 PM 30.8122 -81.7194 212° Southwest 269 310 4,000 -1,700 Descending Jacksonville Center
Sun 02:52:25 PM 30.7500 -81.7564 207° Southwest 256 295 2,800 -992 Descending Jacksonville Center
Sun 02:53:25 PM 30.6811 -81.7622 184° South 251 289 2,000 -403 Descending Jacksonville Center
Sun 02:54:24 PM 30.6144 -81.7678 184° South 246 283 2,000  Level Jacksonville Center

Login

Don't have an account? Register now (free) for customized features, flight alerts, and more!